^^
Station Historical Data
Daily Summary for December 7, 2017 Units:  Both    English   Metric
« Previous Day
Next Day »
Daily Weekly Monthly Yearly Custom
  High: Low: Average:
Temperature: 90.1 °F /  32.3 °C 58.8 °F /  14.9 °C 72.7 °F /  22.6 °C
Dew Point: 58.1 °F /  14.5 °C 45.9 °F /  7.7 °C 51.5 °F /  10.8 °C
Humidity: 91% 24% 51%
Wind Speed: 10.1mph /  16.3km/h - 2.3mph /  3.7km/h
Wind Gust: 24.0mph /  38.6km/h - -
Wind- - SSE
Pressure: 30.35 in /  1027.7 hPa 29.72 in /  1006.3 hPa -
Precipitation: 0.38 in /  9.65 mm    
Historical Graphs
 
 
Tabular Data for December 7, 2017
Time Temperature Dew Point Pressure Wind Wind Speed Wind Gust Humidity Rainfall Rate (Hourly) solar Conditions
00:01 69.3 °F /  20.7 °C 52.9 °F /  11.6 °C 30.22in /  1023.2hPa Calm     56% 0.00in /  0mm 0.0 W/m2
00:06 69.3 °F /  20.7 °C 52.9 °F /  11.6 °C 30.22in /  1023.2hPa Calm     56% 0.00in /  0mm 0.0 W/m2
00:11 69.3 °F /  20.7 °C 52.9 °F /  11.6 °C 30.22in /  1023.2hPa Calm   1.0mph /  1.6km/h 56% 0.00in /  0mm 0.0 W/m2
00:17 69.3 °F /  20.7 °C 52.9 °F /  11.6 °C 30.22in /  1023.2hPa Calm     56% 0.00in /  0mm 0.0 W/m2
00:22 69.3 °F /  20.7 °C 52.9 °F /  11.6 °C 30.22in /  1023.2hPa Calm     56% 0.00in /  0mm 0.0 W/m2
00:27 69.3 °F /  20.7 °C 52.9 °F /  11.6 °C 30.22in /  1023.2hPa Calm     56% 0.00in /  0mm 0.0 W/m2
00:32 69.1 °F /  20.6 °C 53.2 °F /  11.8 °C 30.22in /  1023.2hPa SSE 2.0mph /  3.2km/h 2.0mph /  3.2km/h 57% 0.00in /  0mm 0.0 W/m2
00:37 69.1 °F /  20.6 °C 53.6 °F /  12 °C 30.22in /  1023.2hPa Calm   1.0mph /  1.6km/h 58% 0.00in /  0mm 0.0 W/m2
00:42 68.9 °F /  20.5 °C 53.6 °F /  12 °C 30.22in /  1023.2hPa Calm   1.0mph /  1.6km/h 58% 0.00in /  0mm 0.0 W/m2
00:47 68.7 °F /  20.4 °C 53.4 °F /  11.9 °C 30.21in /  1022.9hPa Calm   1.0mph /  1.6km/h 58% 0.00in /  0mm 0.0 W/m2
00:52 68.7 °F /  20.4 °C 53.4 °F /  11.9 °C 30.21in /  1022.9hPa Calm   1.0mph /  1.6km/h 58% 0.00in /  0mm 0.0 W/m2
00:58 68.7 °F /  20.4 °C 53.4 °F /  11.9 °C 30.21in /  1022.9hPa Calm   1.0mph /  1.6km/h 58% 0.00in /  0mm 0.0 W/m2
01:03 68.5 °F /  20.3 °C 53.2 °F /  11.8 °C 30.21in /  1022.9hPa SE 2.0mph /  3.2km/h 3.0mph /  4.8km/h 58% 0.00in /  0mm 0.0 W/m2
01:08 68.5 °F /  20.3 °C 53.2 °F /  11.8 °C 30.21in /  1022.9hPa Calm   2.0mph /  3.2km/h 58% 0.00in /  0mm 0.0 W/m2
01:13 68.4 °F /  20.2 °C 53.1 °F /  11.7 °C 30.21in /  1022.9hPa Calm   3.0mph /  4.8km/h 58% 0.00in /  0mm 0.0 W/m2
01:18 68.2 °F /  20.1 °C 52.9 °F /  11.6 °C 30.20in /  1022.6hPa Calm   2.0mph /  3.2km/h 58% 0.00in /  0mm 0.0 W/m2
01:23 68.0 °F /  20 °C 53.1 °F /  11.7 °C 30.20in /  1022.6hPa Calm   2.0mph /  3.2km/h 59% 0.00in /  0mm 0.0 W/m2
01:28 67.8 °F /  19.9 °C 52.9 °F /  11.6 °C 30.20in /  1022.6hPa Calm   2.0mph /  3.2km/h 59% 0.00in /  0mm 0.0 W/m2
01:33 67.6 °F /  19.8 °C 53.2 °F /  11.8 °C 30.20in /  1022.6hPa Calm   1.0mph /  1.6km/h 60% 0.00in /  0mm 0.0 W/m2
01:39 67.6 °F /  19.8 °C 52.9 °F /  11.6 °C 30.20in /  1022.6hPa Calm   2.0mph /  3.2km/h 59% 0.00in /  0mm 0.0 W/m2
01:44 67.6 °F /  19.8 °C 52.9 °F /  11.6 °C 30.20in /  1022.6hPa Calm     59% 0.00in /  0mm 0.0 W/m2
01:49 67.5 °F /  19.7 °C 52.7 °F /  11.5 °C 30.20in /  1022.6hPa Calm     59% 0.00in /  0mm 0.0 W/m2
01:54 67.5 °F /  19.7 °C 52.7 °F /  11.5 °C 30.20in /  1022.6hPa Calm     59% 0.00in /  0mm 0.0 W/m2
01:59 67.3 °F /  19.6 °C 52.5 °F /  11.4 °C 30.20in /  1022.6hPa Calm   1.0mph /  1.6km/h 59% 0.00in /  0mm 0.0 W/m2
02:04 67.3 °F /  19.6 °C 52.5 °F /  11.4 °C 30.19in /  1022.2hPa Calm   1.0mph /  1.6km/h 59% 0.00in /  0mm 0.0 W/m2
02:09 67.1 °F /  19.5 °C 52.3 °F /  11.3 °C 30.19in /  1022.2hPa Calm   1.0mph /  1.6km/h 59% 0.00in /  0mm 0.0 W/m2
02:14 66.9 °F /  19.4 °C 52.2 °F /  11.2 °C 30.20in /  1022.6hPa Calm   3.0mph /  4.8km/h 59% 0.00in /  0mm 0.0 W/m2
02:19 66.9 °F /  19.4 °C 51.6 °F /  10.9 °C 30.19in /  1022.2hPa Calm   1.0mph /  1.6km/h 58% 0.00in /  0mm 0.0 W/m2
02:24 66.9 °F /  19.4 °C 51.6 °F /  10.9 °C 30.19in /  1022.2hPa Calm     58% 0.00in /  0mm 0.0 W/m2
02:30 66.7 °F /  19.3 °C 51.4 °F /  10.8 °C 30.19in /  1022.2hPa SE 0.9mph /  1.4km/h 1.0mph /  1.6km/h 58% 0.00in /  0mm 0.0 W/m2
02:35 66.7 °F /  19.3 °C 51.4 °F /  10.8 °C 30.18in /  1021.9hPa SE 0.9mph /  1.4km/h 2.0mph /  3.2km/h 58% 0.00in /  0mm 0.0 W/m2
02:40 66.6 °F /  19.2 °C 51.3 °F /  10.7 °C 30.18in /  1021.9hPa Calm     58% 0.00in /  0mm 0.0 W/m2
02:45 66.6 °F /  19.2 °C 51.3 °F /  10.7 °C 30.18in /  1021.9hPa Calm     58% 0.00in /  0mm 0.0 W/m2
02:50 66.4 °F /  19.1 °C 50.7 °F /  10.4 °C 30.19in /  1022.2hPa Calm     57% 0.00in /  0mm 0.0 W/m2
02:55 66.4 °F /  19.1 °C 51.1 °F /  10.6 °C 30.19in /  1022.2hPa ESE 0.9mph /  1.4km/h 3.0mph /  4.8km/h 58% 0.00in /  0mm 0.0 W/m2
03:00 66.0 °F /  18.9 °C 51.3 °F /  10.7 °C 30.19in /  1022.2hPa Calm   3.0mph /  4.8km/h 59% 0.00in /  0mm 0.0 W/m2
03:05 66.0 °F /  18.9 °C 51.8 °F /  11 °C 30.19in /  1022.2hPa Calm   2.0mph /  3.2km/h 60% 0.00in /  0mm 0.0 W/m2
03:11 65.8 °F /  18.8 °C 52.0 °F /  11.1 °C 30.18in /  1021.9hPa Calm     61% 0.00in /  0mm 0.0 W/m2
03:17 65.7 °F /  18.7 °C 52.3 °F /  11.3 °C 30.19in /  1022.2hPa Calm   1.0mph /  1.6km/h 62% 0.00in /  0mm 0.0 W/m2
03:22 65.7 °F /  18.7 °C 52.3 °F /  11.3 °C 30.18in /  1021.9hPa Calm     62% 0.00in /  0mm 0.0 W/m2
03:27 65.5 °F /  18.6 °C 52.2 °F /  11.2 °C 30.18in /  1021.9hPa Calm   2.0mph /  3.2km/h 62% 0.00in /  0mm 0.0 W/m2
03:32 65.5 °F /  18.6 °C 51.6 °F /  10.9 °C 30.18in /  1021.9hPa South 0.9mph /  1.4km/h 3.0mph /  4.8km/h 61% 0.00in /  0mm 0.0 W/m2
03:37 65.3 °F /  18.5 °C 50.5 °F /  10.3 °C 30.18in /  1021.9hPa Calm   2.0mph /  3.2km/h 59% 0.00in /  0mm 0.0 W/m2
03:42 65.3 °F /  18.5 °C 50.2 °F /  10.1 °C 30.18in /  1021.9hPa Calm   3.0mph /  4.8km/h 58% 0.00in /  0mm 0.0 W/m2
03:47 65.5 °F /  18.6 °C 50.4 °F /  10.2 °C 30.18in /  1021.9hPa Calm   1.0mph /  1.6km/h 58% 0.00in /  0mm 0.0 W/m2
03:52 65.5 °F /  18.6 °C 50.4 °F /  10.2 °C 30.18in /  1021.9hPa Calm     58% 0.00in /  0mm 0.0 W/m2
03:58 65.5 °F /  18.6 °C 50.7 °F /  10.4 °C 30.18in /  1021.9hPa Calm     59% 0.00in /  0mm 0.0 W/m2
04:03 65.3 °F /  18.5 °C 50.5 °F /  10.3 °C 30.18in /  1021.9hPa Calm     59% 0.00in /  0mm 0.0 W/m2
04:08 65.1 °F /  18.4 °C 50.4 °F /  10.2 °C 30.18in /  1021.9hPa Calm     59% 0.00in /  0mm 0.0 W/m2
04:13 64.9 °F /  18.3 °C 49.8 °F /  9.9 °C 30.18in /  1021.9hPa SE 2.0mph /  3.2km/h 2.0mph /  3.2km/h 58% 0.00in /  0mm 0.0 W/m2
04:18 64.8 °F /  18.2 °C 50.5 °F /  10.3 °C 30.19in /  1022.2hPa Calm   2.0mph /  3.2km/h 60% 0.00in /  0mm 0.0 W/m2
04:24 64.6 °F /  18.1 °C 50.9 °F /  10.5 °C 30.19in /  1022.2hPa Calm   1.0mph /  1.6km/h 61% 0.00in /  0mm 0.0 W/m2
04:29 64.2 °F /  17.9 °C 50.5 °F /  10.3 °C 30.19in /  1022.2hPa Calm   1.0mph /  1.6km/h 61% 0.00in /  0mm 0.0 W/m2
04:34 64.0 °F /  17.8 °C 50.7 °F /  10.4 °C 30.19in /  1022.2hPa ENE 0.9mph /  1.4km/h 2.0mph /  3.2km/h 62% 0.00in /  0mm 0.0 W/m2
04:40 63.9 °F /  17.7 °C 51.1 °F /  10.6 °C 30.19in /  1022.2hPa Calm   3.0mph /  4.8km/h 63% 0.00in /  0mm 0.0 W/m2
04:45 63.7 °F /  17.6 °C 51.3 °F /  10.7 °C 30.19in /  1022.2hPa Calm   2.0mph /  3.2km/h 64% 0.00in /  0mm 0.0 W/m2
04:50 63.7 °F /  17.6 °C 51.3 °F /  10.7 °C 30.19in /  1022.2hPa Calm   2.0mph /  3.2km/h 64% 0.00in /  0mm 0.0 W/m2
04:56 63.5 °F /  17.5 °C 51.1 °F /  10.6 °C 30.19in /  1022.2hPa Calm   1.0mph /  1.6km/h 64% 0.00in /  0mm 0.0 W/m2
05:01 63.3 °F /  17.4 °C 50.9 °F /  10.5 °C 30.19in /  1022.2hPa Calm   1.0mph /  1.6km/h 64% 0.00in /  0mm 0.0 W/m2
05:06 63.3 °F /  17.4 °C 50.5 °F /  10.3 °C 30.19in /  1022.2hPa Calm   1.0mph /  1.6km/h 63% 0.00in /  0mm 0.0 W/m2
05:11 63.5 °F /  17.5 °C 50.7 °F /  10.4 °C 30.19in /  1022.2hPa Calm   1.0mph /  1.6km/h 63% 0.00in /  0mm 0.0 W/m2
05:17 63.7 °F /  17.6 °C 50.4 °F /  10.2 °C 30.19in /  1022.2hPa Calm   2.0mph /  3.2km/h 62% 0.00in /  0mm 0.0 W/m2
05:22 63.7 °F /  17.6 °C 50.0 °F /  10 °C 30.19in /  1022.2hPa Calm     61% 0.00in /  0mm 0.0 W/m2
05:24 63.7 °F /  17.6 °C 50.0 °F /  10 °C 29.72in /  1006.3hPa Calm     61% 0.00in /  0mm 0.0 W/m2
05:30 63.7 °F /  17.6 °C 50.0 °F /  10 °C 30.19in /  1022.2hPa East 0.9mph /  1.4km/h 1.0mph /  1.6km/h 61% 0.00in /  0mm 0.0 W/m2
05:35 63.7 °F /  17.6 °C 49.5 °F /  9.7 °C 30.19in /  1022.2hPa Calm   4.0mph /  6.4km/h 60% 0.00in /  0mm 0.0 W/m2
05:38 63.7 °F /  17.6 °C 49.5 °F /  9.7 °C 30.19in /  1022.2hPa NE 2.0mph /  3.2km/h 2.0mph /  3.2km/h 60% 0.00in /  0mm 0.0 W/m2
05:43 63.7 °F /  17.6 °C 50.0 °F /  10 °C 30.19in /  1022.2hPa Calm   4.0mph /  6.4km/h 61% 0.00in /  0mm 0.0 W/m2
05:48 63.7 °F /  17.6 °C 50.4 °F /  10.2 °C 30.19in /  1022.2hPa Calm   3.0mph /  4.8km/h 62% 0.00in /  0mm 0.0 W/m2
05:54 63.3 °F /  17.4 °C 50.5 °F /  10.3 °C 30.19in /  1022.2hPa Calm   3.0mph /  4.8km/h 63% 0.00in /  0mm 0.0 W/m2
05:59 63.3 °F /  17.4 °C 50.9 °F /  10.5 °C 30.20in /  1022.6hPa East 0.9mph /  1.4km/h 3.0mph /  4.8km/h 64% 0.00in /  0mm 0.0 W/m2
06:04 63.1 °F /  17.3 °C 51.3 °F /  10.7 °C 30.20in /  1022.6hPa Calm   1.0mph /  1.6km/h 65% 0.00in /  0mm 0.0 W/m2
06:09 63.0 °F /  17.2 °C 50.5 °F /  10.3 °C 30.20in /  1022.6hPa ENE 2.0mph /  3.2km/h 2.0mph /  3.2km/h 64% 0.00in /  0mm 5.0 W/m2
06:14 63.0 °F /  17.2 °C 50.2 °F /  10.1 °C 30.20in /  1022.6hPa Calm     63% 0.00in /  0mm 7.0 W/m2
06:19 62.8 °F /  17.1 °C 50.0 °F /  10 °C 30.21in /  1022.9hPa ESE 0.9mph /  1.4km/h 3.0mph /  4.8km/h 63% 0.00in /  0mm 11.0 W/m2
06:24 62.8 °F /  17.1 °C 50.0 °F /  10 °C 30.21in /  1022.9hPa Calm   1.0mph /  1.6km/h 63% 0.00in /  0mm 16.0 W/m2
06:29 62.8 °F /  17.1 °C 50.0 °F /  10 °C 30.21in /  1022.9hPa ENE 2.0mph /  3.2km/h 2.0mph /  3.2km/h 63% 0.00in /  0mm 19.0 W/m2
06:35 63.0 °F /  17.2 °C 50.2 °F /  10.1 °C 30.21in /  1022.9hPa ENE 2.0mph /  3.2km/h 3.0mph /  4.8km/h 63% 0.00in /  0mm 21.0 W/m2
06:40 63.0 °F /  17.2 °C 50.2 °F /  10.1 °C 30.22in /  1023.2hPa Calm   2.0mph /  3.2km/h 63% 0.00in /  0mm 23.0 W/m2
06:45 63.3 °F /  17.4 °C 50.9 °F /  10.5 °C 30.22in /  1023.2hPa NE 0.9mph /  1.4km/h 4.0mph /  6.4km/h 64% 0.00in /  0mm 28.0 W/m2
06:51 63.7 °F /  17.6 °C 50.9 °F /  10.5 °C 30.22in /  1023.2hPa East 0.9mph /  1.4km/h 3.0mph /  4.8km/h 63% 0.00in /  0mm 54.0 W/m2
06:56 64.0 °F /  17.8 °C 50.4 °F /  10.2 °C 30.22in /  1023.2hPa East 2.0mph /  3.2km/h 4.0mph /  6.4km/h 61% 0.00in /  0mm 79.0 W/m2
07:01 64.6 °F /  18.1 °C 50.9 °F /  10.5 °C 30.22in /  1023.2hPa ENE 0.9mph /  1.4km/h 5.0mph /  8km/h 61% 0.00in /  0mm 88.0 W/m2
07:07 65.5 °F /  18.6 °C 51.3 °F /  10.7 °C 30.22in /  1023.2hPa NE 4.9mph /  7.9km/h 7.0mph /  11.3km/h 60% 0.00in /  0mm 93.0 W/m2
07:12 66.0 °F /  18.9 °C 51.3 °F /  10.7 °C 30.22in /  1023.2hPa Calm   3.0mph /  4.8km/h 59% 0.00in /  0mm 81.0 W/m2
07:17 66.4 °F /  19.1 °C 51.1 °F /  10.6 °C 30.22in /  1023.2hPa Calm   1.0mph /  1.6km/h 58% 0.00in /  0mm 86.0 W/m2
07:22 66.7 °F /  19.3 °C 51.1 °F /  10.6 °C 30.22in /  1023.2hPa Calm   2.0mph /  3.2km/h 57% 0.00in /  0mm 105.0 W/m2
07:27 67.3 °F /  19.6 °C 51.4 °F /  10.8 °C 30.22in /  1023.2hPa ENE 0.9mph /  1.4km/h 2.0mph /  3.2km/h 57% 0.00in /  0mm 109.0 W/m2
07:33 67.8 °F /  19.9 °C 51.6 °F /  10.9 °C 30.23in /  1023.6hPa Calm   1.0mph /  1.6km/h 56% 0.00in /  0mm 91.0 W/m2
07:38 68.4 °F /  20.2 °C 51.6 °F /  10.9 °C 30.23in /  1023.6hPa Calm   3.0mph /  4.8km/h 55% 0.00in /  0mm 100.0 W/m2
07:43 68.7 °F /  20.4 °C 51.4 °F /  10.8 °C 30.23in /  1023.6hPa Calm   3.0mph /  4.8km/h 54% 0.00in /  0mm 114.0 W/m2
07:49 69.3 °F /  20.7 °C 52.0 °F /  11.1 °C 30.23in /  1023.6hPa East 2.0mph /  3.2km/h 3.0mph /  4.8km/h 54% 0.00in /  0mm 127.0 W/m2
07:54 69.6 °F /  20.9 °C 52.7 °F /  11.5 °C 30.24in /  1023.9hPa NE 2.9mph /  4.7km/h 4.0mph /  6.4km/h 55% 0.00in /  0mm 223.0 W/m2
07:59 70.5 °F /  21.4 °C 53.1 °F /  11.7 °C 30.24in /  1023.9hPa ENE 4.0mph /  6.4km/h 6.0mph /  9.7km/h 54% 0.00in /  0mm 146.0 W/m2
08:04 71.2 °F /  21.8 °C 52.7 °F /  11.5 °C 30.24in /  1023.9hPa ENE 2.0mph /  3.2km/h 4.0mph /  6.4km/h 52% 0.00in /  0mm 142.0 W/m2
08:09 71.8 °F /  22.1 °C 53.2 °F /  11.8 °C 30.24in /  1023.9hPa ENE 0.9mph /  1.4km/h 5.0mph /  8km/h 52% 0.00in /  0mm 142.0 W/m2
08:14 72.0 °F /  22.2 °C 52.3 °F /  11.3 °C 30.24in /  1023.9hPa East 0.9mph /  1.4km/h 4.0mph /  6.4km/h 50% 0.00in /  0mm 148.0 W/m2
08:19 72.3 °F /  22.4 °C 50.9 °F /  10.5 °C 30.24in /  1023.9hPa NE 2.0mph /  3.2km/h 3.0mph /  4.8km/h 47% 0.00in /  0mm 123.0 W/m2
08:25 72.7 °F /  22.6 °C 51.8 °F /  11 °C 30.24in /  1023.9hPa East 2.0mph /  3.2km/h 3.0mph /  4.8km/h 48% 0.00in /  0mm 127.0 W/m2
08:30 73.2 °F /  22.9 °C 51.3 °F /  10.7 °C 30.24in /  1023.9hPa NNE 0.9mph /  1.4km/h 2.0mph /  3.2km/h 46% 0.00in /  0mm 160.0 W/m2
08:35 73.6 °F /  23.1 °C 51.4 °F /  10.8 °C 30.24in /  1023.9hPa NW 2.0mph /  3.2km/h 2.0mph /  3.2km/h 46% 0.00in /  0mm 179.0 W/m2
08:41 73.9 °F /  23.3 °C 51.8 °F /  11 °C 30.24in /  1023.9hPa NNW 0.9mph /  1.4km/h 4.0mph /  6.4km/h 46% 0.00in /  0mm 199.0 W/m2
08:46 74.1 °F /  23.4 °C 51.4 °F /  10.8 °C 30.25in /  1024.3hPa NNW 2.0mph /  3.2km/h 3.0mph /  4.8km/h 45% 0.00in /  0mm 218.0 W/m2
08:51 74.1 °F /  23.4 °C 51.4 °F /  10.8 °C 30.25in /  1024.3hPa Calm   4.0mph /  6.4km/h 45% 0.00in /  0mm 171.0 W/m2
08:56 74.1 °F /  23.4 °C 51.4 °F /  10.8 °C 30.25in /  1024.3hPa NNW 0.9mph /  1.4km/h 5.0mph /  8km/h 45% 0.00in /  0mm 664.0 W/m2
09:01 74.8 °F /  23.8 °C 51.4 °F /  10.8 °C 30.25in /  1024.3hPa NNW 2.0mph /  3.2km/h 5.0mph /  8km/h 44% 0.00in /  0mm 661.0 W/m2
09:06 75.6 °F /  24.2 °C 51.4 °F /  10.8 °C 30.25in /  1024.3hPa Calm   5.0mph /  8km/h 43% 0.00in /  0mm 677.0 W/m2
09:12 76.5 °F /  24.7 °C 51.1 °F /  10.6 °C 30.25in /  1024.3hPa North 2.9mph /  4.7km/h 5.0mph /  8km/h 41% 0.00in /  0mm 698.0 W/m2
09:18 77.5 °F /  25.3 °C 51.3 °F /  10.7 °C 30.25in /  1024.3hPa NNW 2.0mph /  3.2km/h 6.0mph /  9.7km/h 40% 0.00in /  0mm 708.0 W/m2
09:22 78.3 °F /  25.7 °C 50.5 °F /  10.3 °C 30.25in /  1024.3hPa ENE 8.1mph /  13km/h 8.1mph /  13km/h 38% 0.00in /  0mm 735.0 W/m2
09:28 79.0 °F /  26.1 °C 50.5 °F /  10.3 °C 30.25in /  1024.3hPa NNE 2.0mph /  3.2km/h 7.0mph /  11.3km/h 37% 0.00in /  0mm 751.0 W/m2
09:33 79.3 °F /  26.3 °C 50.7 °F /  10.4 °C 30.25in /  1024.3hPa East 4.0mph /  6.4km/h 8.0mph /  12.9km/h 37% 0.00in /  0mm 758.0 W/m2
09:38 79.7 °F /  26.5 °C 50.4 °F /  10.2 °C 30.24in /  1023.9hPa ESE 4.9mph /  7.9km/h 12.0mph /  19.3km/h 36% 0.00in /  0mm 766.0 W/m2
09:44 79.5 °F /  26.4 °C 50.2 °F /  10.1 °C 30.24in /  1023.9hPa NNW 0.9mph /  1.4km/h 5.0mph /  8km/h 36% 0.00in /  0mm 780.0 W/m2
09:49 79.9 °F /  26.6 °C 50.5 °F /  10.3 °C 30.24in /  1023.9hPa ENE 4.9mph /  7.9km/h 9.0mph /  14.5km/h 36% 0.00in /  0mm 798.0 W/m2
09:54 80.4 °F /  26.9 °C 50.2 °F /  10.1 °C 30.24in /  1023.9hPa NE 0.9mph /  1.4km/h 6.0mph /  9.7km/h 35% 0.00in /  0mm 810.0 W/m2
09:59 80.8 °F /  27.1 °C 49.8 °F /  9.9 °C 30.24in /  1023.9hPa NNE 2.9mph /  4.7km/h 8.0mph /  12.9km/h 34% 0.00in /  0mm 824.0 W/m2
10:04 81.1 °F /  27.3 °C 49.3 °F /  9.6 °C 30.24in /  1023.9hPa NNW 4.9mph /  7.9km/h 7.0mph /  11.3km/h 33% 0.00in /  0mm 835.0 W/m2
10:09 81.5 °F /  27.5 °C 49.6 °F /  9.8 °C 30.24in /  1023.9hPa East 0.9mph /  1.4km/h 6.0mph /  9.7km/h 33% 0.00in /  0mm 851.0 W/m2
10:14 81.7 °F /  27.6 °C 49.8 °F /  9.9 °C 30.24in /  1023.9hPa ENE 8.1mph /  13km/h 9.0mph /  14.5km/h 33% 0.00in /  0mm 898.0 W/m2
10:19 81.9 °F /  27.7 °C 48.2 °F /  9 °C 30.24in /  1023.9hPa SE 2.9mph /  4.7km/h 5.0mph /  8km/h 31% 0.00in /  0mm 907.0 W/m2
10:25 82.0 °F /  27.8 °C 48.4 °F /  9.1 °C 30.24in /  1023.9hPa NNE 6.9mph /  11.1km/h 8.0mph /  12.9km/h 31% 0.00in /  0mm 912.0 W/m2
10:30 82.4 °F /  28 °C 49.6 °F /  9.8 °C 30.24in /  1023.9hPa Calm   3.0mph /  4.8km/h 32% 0.00in /  0mm 930.0 W/m2
10:35 82.9 °F /  28.3 °C 49.3 °F /  9.6 °C 30.24in /  1023.9hPa East 0.9mph /  1.4km/h 8.0mph /  12.9km/h 31% 0.00in /  0mm 940.0 W/m2
10:40 83.7 °F /  28.7 °C 49.8 °F /  9.9 °C 30.24in /  1023.9hPa East 8.1mph /  13km/h 8.1mph /  13km/h 31% 0.00in /  0mm 939.0 W/m2
10:45 84.4 °F /  29.1 °C 49.6 °F /  9.8 °C 30.23in /  1023.6hPa NNE 10.1mph /  16.3km/h 10.1mph /  16.3km/h 30% 0.00in /  0mm 944.0 W/m2
10:50 84.4 °F /  29.1 °C 48.7 °F /  9.3 °C 30.23in /  1023.6hPa North 4.0mph /  6.4km/h 10.0mph /  16.1km/h 29% 0.00in /  0mm 953.0 W/m2
10:55 84.2 °F /  29 °C 49.5 °F /  9.7 °C 30.24in /  1023.9hPa ESE 4.0mph /  6.4km/h 9.0mph /  14.5km/h 30% 0.00in /  0mm 958.0 W/m2
11:00 84.4 °F /  29.1 °C 49.6 °F /  9.8 °C 30.23in /  1023.6hPa ENE 6.0mph /  9.7km/h 12.0mph /  19.3km/h 30% 0.00in /  0mm 974.0 W/m2
11:05 84.6 °F /  29.2 °C 49.6 °F /  9.8 °C 30.23in /  1023.6hPa ESE 8.9mph /  14.3km/h 11.0mph /  17.7km/h 30% 0.00in /  0mm 977.0 W/m2
11:10 84.4 °F /  29.1 °C 47.7 °F /  8.7 °C 30.23in /  1023.6hPa NE 2.9mph /  4.7km/h 10.0mph /  16.1km/h 28% 0.00in /  0mm 986.0 W/m2
11:15 84.7 °F /  29.3 °C 48.0 °F /  8.9 °C 30.23in /  1023.6hPa ENE 6.9mph /  11.1km/h 11.0mph /  17.7km/h 28% 0.00in /  0mm 990.0 W/m2
11:20 85.3 °F /  29.6 °C 49.5 °F /  9.7 °C 30.23in /  1023.6hPa North 0.9mph /  1.4km/h 6.0mph /  9.7km/h 29% 0.00in /  0mm 1000.0 W/m2
11:25 85.3 °F /  29.6 °C 48.6 °F /  9.2 °C 30.23in /  1023.6hPa North 2.9mph /  4.7km/h 10.0mph /  16.1km/h 28% 0.00in /  0mm 1011.0 W/m2
11:30 85.5 °F /  29.7 °C 48.6 °F /  9.2 °C 30.23in /  1023.6hPa ENE 6.0mph /  9.7km/h 10.0mph /  16.1km/h 28% 0.00in /  0mm 1014.0 W/m2
11:35 85.6 °F /  29.8 °C 48.7 °F /  9.3 °C 30.22in /  1023.2hPa NE 4.9mph /  7.9km/h 14.0mph /  22.5km/h 28% 0.00in /  0mm 1016.0 W/m2
11:40 85.6 °F /  29.8 °C 48.7 °F /  9.3 °C 30.22in /  1023.2hPa SSE 2.9mph /  4.7km/h 5.0mph /  8km/h 28% 0.00in /  0mm 1025.0 W/m2
11:45 85.8 °F /  29.9 °C 48.0 °F /  8.9 °C 30.22in /  1023.2hPa ENE 4.9mph /  7.9km/h 8.0mph /  12.9km/h 27% 0.00in /  0mm 1034.0 W/m2
11:50 86.0 °F /  30 °C 48.2 °F /  9 °C 30.22in /  1023.2hPa SE 0.9mph /  1.4km/h 9.0mph /  14.5km/h 27% 0.00in /  0mm 1042.0 W/m2
11:55 86.2 °F /  30.1 °C 48.2 °F /  9 °C 30.21in /  1022.9hPa East 2.9mph /  4.7km/h 6.0mph /  9.7km/h 27% 0.00in /  0mm 1053.0 W/m2
12:00 86.4 °F /  30.2 °C 48.4 °F /  9.1 °C 30.21in /  1022.9hPa SE 8.1mph /  13km/h 11.0mph /  17.7km/h 27% 0.00in /  0mm 1060.0 W/m2
12:06 86.2 °F /  30.1 °C 47.3 °F /  8.5 °C 30.21in /  1022.9hPa SSE 4.0mph /  6.4km/h 6.0mph /  9.7km/h 26% 0.00in /  0mm 1083.0 W/m2
12:11 86.5 °F /  30.3 °C 49.6 °F /  9.8 °C 30.21in /  1022.9hPa ENE 0.9mph /  1.4km/h 13.0mph /  20.9km/h 28% 0.00in /  0mm 1132.0 W/m2
12:17 85.6 °F /  29.8 °C 47.8 °F /  8.8 °C 30.21in /  1022.9hPa ESE 2.9mph /  4.7km/h 6.0mph /  9.7km/h 27% 0.00in /  0mm 176.0 W/m2
12:22 85.3 °F /  29.6 °C 48.6 °F /  9.2 °C 30.21in /  1022.9hPa Calm   4.0mph /  6.4km/h 28% 0.00in /  0mm 158.0 W/m2
12:27 84.7 °F /  29.3 °C 48.0 °F /  8.9 °C 30.21in /  1022.9hPa NNE 4.0mph /  6.4km/h 6.0mph /  9.7km/h 28% 0.00in /  0mm 186.0 W/m2
12:32 84.4 °F /  29.1 °C 47.7 °F /  8.7 °C 30.20in /  1022.6hPa ENE 0.9mph /  1.4km/h 8.0mph /  12.9km/h 28% 0.00in /  0mm 287.0 W/m2
12:37 84.7 °F /  29.3 °C 48.9 °F /  9.4 °C 30.20in /  1022.6hPa NNW 6.0mph /  9.7km/h 9.0mph /  14.5km/h 29% 0.00in /  0mm 1227.0 W/m2
12:42 85.8 °F /  29.9 °C 48.0 °F /  8.9 °C 30.20in /  1022.6hPa NE 4.0mph /  6.4km/h 9.0mph /  14.5km/h 27% 0.00in /  0mm 1158.0 W/m2
12:47 86.4 °F /  30.2 °C 48.4 °F /  9.1 °C 30.19in /  1022.2hPa WNW 2.0mph /  3.2km/h 4.0mph /  6.4km/h 27% 0.00in /  0mm 1127.0 W/m2
12:52 86.7 °F /  30.4 °C 47.7 °F /  8.7 °C 30.19in /  1022.2hPa Calm   5.0mph /  8km/h 26% 0.00in /  0mm 1158.0 W/m2
12:57 87.6 °F /  30.9 °C 48.6 °F /  9.2 °C 30.19in /  1022.2hPa SSW 0.9mph /  1.4km/h 9.0mph /  14.5km/h 26% 0.00in /  0mm 1167.0 W/m2
13:02 88.0 °F /  31.1 °C 47.8 °F /  8.8 °C 30.19in /  1022.2hPa North 2.0mph /  3.2km/h 4.0mph /  6.4km/h 25% 0.00in /  0mm 1178.0 W/m2
13:07 88.9 °F /  31.6 °C 47.5 °F /  8.6 °C 30.19in /  1022.2hPa NW 0.9mph /  1.4km/h 8.0mph /  12.9km/h 24% 0.00in /  0mm 1216.0 W/m2
13:12 89.1 °F /  31.7 °C 48.7 °F /  9.3 °C 30.18in /  1021.9hPa Calm   3.0mph /  4.8km/h 25% 0.00in /  0mm 1225.0 W/m2
13:18 89.2 °F /  31.8 °C 48.7 °F /  9.3 °C 30.18in /  1021.9hPa East 2.9mph /  4.7km/h 13.0mph /  20.9km/h 25% 0.00in /  0mm 1209.0 W/m2
13:23 90.0 °F /  32.2 °C 48.4 °F /  9.1 °C 30.18in /  1021.9hPa NNW 2.9mph /  4.7km/h 7.0mph /  11.3km/h 24% 0.00in /  0mm 642.0 W/m2
13:28 90.1 °F /  32.3 °C 48.6 °F /  9.2 °C 30.18in /  1021.9hPa NE 4.0mph /  6.4km/h 7.0mph /  11.3km/h 24% 0.00in /  0mm 257.0 W/m2
13:33 88.9 °F /  31.6 °C 49.6 °F /  9.8 °C 30.17in /  1021.6hPa North 4.9mph /  7.9km/h 6.0mph /  9.7km/h 26% 0.00in /  0mm 221.0 W/m2
13:38 87.3 °F /  30.7 °C 49.3 °F /  9.6 °C 30.17in /  1021.6hPa North 4.0mph /  6.4km/h 11.0mph /  17.7km/h 27% 0.00in /  0mm 195.0 W/m2
13:43 85.8 °F /  29.9 °C 48.9 °F /  9.4 °C 30.17in /  1021.6hPa NNE 8.1mph /  13km/h 8.1mph /  13km/h 28% 0.00in /  0mm 176.0 W/m2
13:48 85.3 °F /  29.6 °C 50.4 °F /  10.2 °C 30.17in /  1021.6hPa NNW 4.0mph /  6.4km/h 7.0mph /  11.3km/h 30% 0.00in /  0mm 132.0 W/m2
13:53 84.7 °F /  29.3 °C 48.9 °F /  9.4 °C 30.17in /  1021.6hPa NNW 2.0mph /  3.2km/h 10.0mph /  16.1km/h 29% 0.00in /  0mm 134.0 W/m2
13:58 84.2 °F /  29 °C 49.5 °F /  9.7 °C 30.17in /  1021.6hPa NNW 2.9mph /  4.7km/h 6.0mph /  9.7km/h 30% 0.00in /  0mm 130.0 W/m2
14:03 84.0 °F /  28.9 °C 49.3 °F /  9.6 °C 30.17in /  1021.6hPa NNW 6.0mph /  9.7km/h 10.0mph /  16.1km/h 30% 0.00in /  0mm 137.0 W/m2
14:09 83.8 °F /  28.8 °C 54.0 °F /  12.2 °C 30.16in /  1021.2hPa North 2.0mph /  3.2km/h 6.0mph /  9.7km/h 36% 0.00in /  0mm 156.0 W/m2
14:13 83.1 °F /  28.4 °C 57.6 °F /  14.2 °C 30.16in /  1021.2hPa North 0.9mph /  1.4km/h 5.0mph /  8km/h 42% 0.00in /  0mm 237.0 W/m2
14:18 82.2 °F /  27.9 °C 54.9 °F /  12.7 °C 30.16in /  1021.2hPa Calm   5.0mph /  8km/h 39% 0.00in /  0mm 868.0 W/m2
14:23 82.2 °F /  27.9 °C 54.1 °F /  12.3 °C 30.15in /  1020.9hPa NNW 2.0mph /  3.2km/h 2.0mph /  3.2km/h 38% 0.00in /  0mm 278.0 W/m2
14:28 82.4 °F /  28 °C 51.3 °F /  10.7 °C 30.15in /  1020.9hPa Calm   3.0mph /  4.8km/h 34% 0.00in /  0mm 241.0 W/m2
14:33 82.6 °F /  28.1 °C 52.2 °F /  11.2 °C 30.15in /  1020.9hPa South 0.9mph /  1.4km/h 1.0mph /  1.6km/h 35% 0.00in /  0mm 308.0 W/m2
14:38 82.8 °F /  28.2 °C 49.1 °F /  9.5 °C 30.14in /  1020.5hPa South 0.9mph /  1.4km/h 3.0mph /  4.8km/h 31% 0.00in /  0mm 234.0 W/m2
14:43 82.9 °F /  28.3 °C 48.4 °F /  9.1 °C 30.14in /  1020.5hPa WSW 0.9mph /  1.4km/h 2.0mph /  3.2km/h 30% 0.00in /  0mm 276.0 W/m2
14:49 82.9 °F /  28.3 °C 48.4 °F /  9.1 °C 30.14in /  1020.5hPa Calm   2.0mph /  3.2km/h 30% 0.00in /  0mm 752.0 W/m2
14:54 83.5 °F /  28.6 °C 49.6 °F /  9.8 °C 30.14in /  1020.5hPa West 2.9mph /  4.7km/h 6.0mph /  9.7km/h 31% 0.00in /  0mm 571.0 W/m2
14:59 83.8 °F /  28.8 °C 49.1 °F /  9.5 °C 30.14in /  1020.5hPa Calm   2.0mph /  3.2km/h 30% 0.00in /  0mm 246.0 W/m2
15:04 84.0 °F /  28.9 °C 49.3 °F /  9.6 °C 30.14in /  1020.5hPa Calm   2.0mph /  3.2km/h 30% 0.00in /  0mm 251.0 W/m2
15:09 84.2 °F /  29 °C 49.5 °F /  9.7 °C 30.14in /  1020.5hPa WSW 2.0mph /  3.2km/h 2.0mph /  3.2km/h 30% 0.00in /  0mm 325.0 W/m2
15:14 84.4 °F /  29.1 °C 48.7 °F /  9.3 °C 30.13in /  1020.2hPa Calm   1.0mph /  1.6km/h 29% 0.00in /  0mm 299.0 W/m2
15:19 84.6 °F /  29.2 °C 48.7 °F /  9.3 °C 30.13in /  1020.2hPa Calm   4.0mph /  6.4km/h 29% 0.00in /  0mm 352.0 W/m2
15:24 84.6 °F /  29.2 °C 47.8 °F /  8.8 °C 30.12in /  1019.9hPa NW 4.9mph /  7.9km/h 6.0mph /  9.7km/h 28% 0.00in /  0mm 367.0 W/m2
15:29 84.9 °F /  29.4 °C 48.2 °F /  9 °C 30.12in /  1019.9hPa Calm   6.0mph /  9.7km/h 28% 0.00in /  0mm 432.0 W/m2
15:34 85.5 °F /  29.7 °C 48.6 °F /  9.2 °C 30.11in /  1019.5hPa WNW 4.9mph /  7.9km/h 5.0mph /  8km/h 28% 0.00in /  0mm 415.0 W/m2
15:40 85.6 °F /  29.8 °C 45.9 °F /  7.7 °C 30.12in /  1019.9hPa WNW 4.9mph /  7.9km/h 5.0mph /  8km/h 25% 0.00in /  0mm 550.0 W/m2
15:50 85.5 °F /  29.7 °C 46.6 °F /  8.1 °C 30.12in /  1019.9hPa WSW 2.9mph /  4.7km/h 7.0mph /  11.3km/h 26% 0.00in /  0mm 536.0 W/m2
15:55 85.8 °F /  29.9 °C 46.9 °F /  8.3 °C 30.12in /  1019.9hPa SSW 2.9mph /  4.7km/h 8.0mph /  12.9km/h 26% 0.00in /  0mm 821.0 W/m2
16:05 84.4 °F /  29.1 °C 49.6 °F /  9.8 °C 30.12in /  1019.9hPa NNW 6.0mph /  9.7km/h 12.0mph /  19.3km/h 30% 0.00in /  0mm 153.0 W/m2
16:15 82.2 °F /  27.9 °C 50.2 °F /  10.1 °C 30.12in /  1019.9hPa NNW 4.9mph /  7.9km/h 11.0mph /  17.7km/h 33% 0.00in /  0mm 134.0 W/m2
16:21 81.9 °F /  27.7 °C 50.0 °F /  10 °C 30.12in /  1019.9hPa WNW 0.9mph /  1.4km/h 9.0mph /  14.5km/h 33% 0.00in /  0mm 128.0 W/m2
16:31 81.0 °F /  27.2 °C 51.4 °F /  10.8 °C 30.12in /  1019.9hPa NNW 8.1mph /  13km/h 8.1mph /  13km/h 36% 0.00in /  0mm 104.0 W/m2
16:36 80.4 °F /  26.9 °C 50.2 °F /  10.1 °C 30.12in /  1019.9hPa NW 2.9mph /  4.7km/h 8.0mph /  12.9km/h 35% 0.00in /  0mm 109.0 W/m2
16:41 80.1 °F /  26.7 °C 47.5 °F /  8.6 °C 30.12in /  1019.9hPa NNW 2.0mph /  3.2km/h 11.0mph /  17.7km/h 32% 0.00in /  0mm 165.0 W/m2
16:46 80.4 °F /  26.9 °C 47.8 °F /  8.8 °C 30.12in /  1019.9hPa WNW 2.9mph /  4.7km/h 11.0mph /  17.7km/h 32% 0.00in /  0mm 510.0 W/m2
16:51 81.0 °F /  27.2 °C 48.4 °F /  9.1 °C 30.12in /  1019.9hPa NNW 2.9mph /  4.7km/h 12.0mph /  19.3km/h 32% 0.00in /  0mm 619.0 W/m2
16:56 81.7 °F /  27.6 °C 48.0 °F /  8.9 °C 30.12in /  1019.9hPa NNW 8.9mph /  14.3km/h 15.0mph /  24.1km/h 31% 0.00in /  0mm 555.0 W/m2
17:01 81.9 °F /  27.7 °C 49.1 °F /  9.5 °C 30.12in /  1019.9hPa NNW 2.0mph /  3.2km/h 13.0mph /  20.9km/h 32% 0.00in /  0mm 545.0 W/m2
17:06 82.6 °F /  28.1 °C 48.9 °F /  9.4 °C 30.12in /  1019.9hPa NNW 6.9mph /  11.1km/h 10.0mph /  16.1km/h 31% 0.00in /  0mm 587.0 W/m2
17:17 82.2 °F /  27.9 °C 47.7 °F /  8.7 °C 30.13in /  1020.2hPa NNW 4.9mph /  7.9km/h 6.0mph /  9.7km/h 30% 0.00in /  0mm 575.0 W/m2
17:32 81.7 °F /  27.6 °C 46.4 °F /  8 °C 30.13in /  1020.2hPa NW 2.9mph /  4.7km/h 6.0mph /  9.7km/h 29% 0.00in /  0mm 158.0 W/m2
17:37 81.5 °F /  27.5 °C 47.1 °F /  8.4 °C 30.13in /  1020.2hPa NNW 4.9mph /  7.9km/h 5.0mph /  8km/h 30% 0.00in /  0mm 213.0 W/m2
17:42 81.7 °F /  27.6 °C 48.0 °F /  8.9 °C 30.14in /  1020.5hPa NNE 6.0mph /  9.7km/h 11.0mph /  17.7km/h 31% 0.00in /  0mm 130.0 W/m2
17:47 81.7 °F /  27.6 °C 50.5 °F /  10.3 °C 30.14in /  1020.5hPa East 2.9mph /  4.7km/h 9.0mph /  14.5km/h 34% 0.00in /  0mm 220.0 W/m2
17:52 81.1 °F /  27.3 °C 51.6 °F /  10.9 °C 30.14in /  1020.5hPa NE 6.0mph /  9.7km/h 11.0mph /  17.7km/h 36% 0.00in /  0mm 153.0 W/m2
17:57 80.4 °F /  26.9 °C 52.5 °F /  11.4 °C 30.14in /  1020.5hPa ENE 4.9mph /  7.9km/h 9.0mph /  14.5km/h 38% 0.00in /  0mm 401.0 W/m2
18:03 80.1 °F /  26.7 °C 52.9 °F /  11.6 °C 30.14in /  1020.5hPa ENE 2.9mph /  4.7km/h 9.0mph /  14.5km/h 39% 0.00in /  0mm 144.0 W/m2
18:08 79.2 °F /  26.2 °C 52.7 °F /  11.5 °C 30.14in /  1020.5hPa ENE 2.0mph /  3.2km/h 8.0mph /  12.9km/h 40% 0.00in /  0mm 98.0 W/m2
18:13 78.6 °F /  25.9 °C 50.9 °F /  10.5 °C 30.15in /  1020.9hPa ENE 6.9mph /  11.1km/h 8.0mph /  12.9km/h 38% 0.00in /  0mm 60.0 W/m2
18:23 76.1 °F /  24.5 °C 52.0 °F /  11.1 °C 30.17in /  1021.6hPa NE 10.1mph /  16.3km/h 16.0mph /  25.7km/h 43% 0.00in /  0mm 47.0 W/m2
18:28 74.5 °F /  23.6 °C 52.3 °F /  11.3 °C 30.18in /  1021.9hPa East 4.0mph /  6.4km/h 18.0mph /  29km/h 46% 0.00in /  0mm 30.0 W/m2
18:33 73.0 °F /  22.8 °C 52.7 °F /  11.5 °C 30.18in /  1021.9hPa NE 6.9mph /  11.1km/h 18.0mph /  29km/h 49% 0.00in /  0mm 23.0 W/m2
18:38 72.5 °F /  22.5 °C 52.9 °F /  11.6 °C 30.18in /  1021.9hPa ESE 4.0mph /  6.4km/h 10.0mph /  16.1km/h 50% 0.00in /  0mm 28.0 W/m2
18:54 70.2 °F /  21.2 °C 54.7 °F /  12.6 °C 30.17in /  1021.6hPa East 10.1mph /  16.3km/h 20.0mph /  32.2km/h 58% 0.00in /  0mm 14.0 W/m2
18:59 69.3 °F /  20.7 °C 54.9 °F /  12.7 °C 30.17in /  1021.6hPa NE 10.1mph /  16.3km/h 13.0mph /  20.9km/h 60% 0.00in /  0mm 7.0 W/m2
19:04 68.7 °F /  20.4 °C 54.7 °F /  12.6 °C 30.17in /  1021.6hPa NNE 2.0mph /  3.2km/h 19.0mph /  30.6km/h 61% 0.00in /  0mm 0.0 W/m2
19:09 68.7 °F /  20.4 °C 53.8 °F /  12.1 °C 30.17in /  1021.6hPa East 4.9mph /  7.9km/h 24.0mph /  38.6km/h 59% 0.00in /  0mm 0.0 W/m2
19:14 68.7 °F /  20.4 °C 53.8 °F /  12.1 °C 30.18in /  1021.9hPa NE 6.0mph /  9.7km/h 15.0mph /  24.1km/h 59% 0.00in /  0mm 0.0 W/m2
19:24 68.5 °F /  20.3 °C 54.5 °F /  12.5 °C 30.18in /  1021.9hPa NNE 6.9mph /  11.1km/h 13.0mph /  20.9km/h 61% 0.00in /  0mm 0.0 W/m2
19:30 68.2 °F /  20.1 °C 54.1 °F /  12.3 °C 30.19in /  1022.2hPa ENE 8.1mph /  13km/h 22.0mph /  35.4km/h 61% 0.00in /  0mm 0.0 W/m2
19:35 67.8 °F /  19.9 °C 54.3 °F /  12.4 °C 30.19in /  1022.2hPa ENE 8.9mph /  14.3km/h 14.0mph /  22.5km/h 62% 0.00in /  0mm 0.0 W/m2
19:40 67.6 °F /  19.8 °C 54.1 °F /  12.3 °C 30.21in /  1022.9hPa NE 6.9mph /  11.1km/h 17.0mph /  27.4km/h 62% 0.00in /  0mm 0.0 W/m2
19:50 67.8 °F /  19.9 °C 54.3 °F /  12.4 °C 30.23in /  1023.6hPa North 8.1mph /  13km/h 11.0mph /  17.7km/h 62% 0.00in /  0mm 0.0 W/m2
19:55 67.8 °F /  19.9 °C 54.3 °F /  12.4 °C 30.23in /  1023.6hPa ENE 6.9mph /  11.1km/h 13.0mph /  20.9km/h 62% 0.00in /  0mm 0.0 W/m2
20:05 67.5 °F /  19.7 °C 56.1 °F /  13.4 °C 30.25in /  1024.3hPa NE 4.0mph /  6.4km/h 10.0mph /  16.1km/h 67% 0.00in /  0mm 0.0 W/m2
20:10 66.9 °F /  19.4 °C 56.8 °F /  13.8 °C 30.25in /  1024.3hPa East 4.9mph /  7.9km/h 8.0mph /  12.9km/h 70% 0.00in /  0mm 0.0 W/m2
20:15 66.6 °F /  19.2 °C 56.8 °F /  13.8 °C 30.26in /  1024.6hPa East 2.0mph /  3.2km/h 7.0mph /  11.3km/h 71% 0.01in /  0.25mm 0.0 W/m2
20:26 65.8 °F /  18.8 °C 57.4 °F /  14.1 °C 30.28in /  1025.3hPa SE 2.9mph /  4.7km/h 8.0mph /  12.9km/h 74% 0.02in /  0.51mm 0.0 W/m2
20:31 65.3 °F /  18.5 °C 57.6 °F /  14.2 °C 30.30in /  1026hPa ESE 8.9mph /  14.3km/h 9.0mph /  14.5km/h 76% 0.02in /  0.51mm 0.0 W/m2
20:36 64.8 °F /  18.2 °C 58.1 °F /  14.5 °C 30.30in /  1026hPa SSW 4.9mph /  7.9km/h 10.0mph /  16.1km/h 79% 0.05in /  1.27mm 0.0 W/m2
20:46 62.4 °F /  16.9 °C 57.2 °F /  14 °C 30.32in /  1026.6hPa South 4.0mph /  6.4km/h 11.0mph /  17.7km/h 83% 0.08in /  2.03mm 0.0 W/m2
20:56 61.0 °F /  16.1 °C 56.8 °F /  13.8 °C 30.34in /  1027.3hPa SW 2.9mph /  4.7km/h 9.0mph /  14.5km/h 86% 0.09in /  2.29mm 0.0 W/m2
21:01 60.6 °F /  15.9 °C 56.7 °F /  13.7 °C 30.34in /  1027.3hPa SSW 0.9mph /  1.4km/h 10.0mph /  16.1km/h 87% 0.11in /  2.79mm 0.0 W/m2
21:06 60.4 °F /  15.8 °C 56.8 °F /  13.8 °C 30.34in /  1027.3hPa SE 8.9mph /  14.3km/h 9.0mph /  14.5km/h 88% 0.13in /  3.3mm 0.0 W/m2
21:11 60.3 °F /  15.7 °C 56.7 °F /  13.7 °C 30.34in /  1027.3hPa NE 4.0mph /  6.4km/h 9.0mph /  14.5km/h 88% 0.14in /  3.56mm 0.0 W/m2
21:16 60.1 °F /  15.6 °C 56.8 °F /  13.8 °C 30.34in /  1027.3hPa South 4.0mph /  6.4km/h 5.0mph /  8km/h 89% 0.15in /  3.81mm 0.0 W/m2
21:21 60.1 °F /  15.6 °C 57.2 °F /  14 °C 30.34in /  1027.3hPa SE 0.9mph /  1.4km/h 4.0mph /  6.4km/h 90% 0.18in /  4.57mm 0.0 W/m2
21:26 60.1 °F /  15.6 °C 57.2 °F /  14 °C 30.34in /  1027.3hPa SSW 8.1mph /  13km/h 11.0mph /  17.7km/h 90% 0.21in /  5.33mm 0.0 W/m2
21:43 59.7 °F /  15.4 °C 56.8 °F /  13.8 °C 30.35in /  1027.7hPa SSE 4.0mph /  6.4km/h 10.0mph /  16.1km/h 90% 0.19in /  4.83mm 0.0 W/m2
21:49 59.7 °F /  15.4 °C 56.8 °F /  13.8 °C 30.35in /  1027.7hPa East 2.9mph /  4.7km/h 7.0mph /  11.3km/h 90% 0.18in /  4.57mm 0.0 W/m2
21:54 59.7 °F /  15.4 °C 56.8 °F /  13.8 °C 30.35in /  1027.7hPa SE 6.9mph /  11.1km/h 9.0mph /  14.5km/h 90% 0.20in /  5.08mm 0.0 W/m2
22:04 59.4 °F /  15.2 °C 55.8 °F /  13.2 °C 30.34in /  1027.3hPa East 2.9mph /  4.7km/h 9.0mph /  14.5km/h 88% 0.20in /  5.08mm 0.0 W/m2
22:14 59.0 °F /  15 °C 55.4 °F /  13 °C 30.34in /  1027.3hPa SE 2.0mph /  3.2km/h 6.0mph /  9.7km/h 88% 0.21in /  5.33mm 0.0 W/m2
22:19 58.8 °F /  14.9 °C 55.6 °F /  13.1 °C 30.35in /  1027.7hPa Calm   6.0mph /  9.7km/h 89% 0.20in /  5.08mm 0.0 W/m2
22:24 58.8 °F /  14.9 °C 55.6 °F /  13.1 °C 30.35in /  1027.7hPa Calm   3.0mph /  4.8km/h 89% 0.16in /  4.06mm 0.0 W/m2
22:30 59.0 °F /  15 °C 56.1 °F /  13.4 °C 30.35in /  1027.7hPa ESE 2.0mph /  3.2km/h 5.0mph /  8km/h 90% 0.14in /  3.56mm 0.0 W/m2
22:35 59.0 °F /  15 °C 56.1 °F /  13.4 °C 30.34in /  1027.3hPa Calm   1.0mph /  1.6km/h 90% 0.13in /  3.3mm 0.0 W/m2
22:40 58.8 °F /  14.9 °C 55.6 °F /  13.1 °C 30.34in /  1027.3hPa Calm     89% 0.13in /  3.3mm 0.0 W/m2
22:45 58.8 °F /  14.9 °C 55.9 °F /  13.3 °C 30.34in /  1027.3hPa Calm     90% 0.12in /  3.05mm 0.0 W/m2
22:50 58.8 °F /  14.9 °C 55.9 °F /  13.3 °C 30.34in /  1027.3hPa Calm     90% 0.10in /  2.54mm 0.0 W/m2
22:55 58.8 °F /  14.9 °C 55.9 °F /  13.3 °C 30.34in /  1027.3hPa Calm   1.0mph /  1.6km/h 90% 0.09in /  2.29mm 0.0 W/m2
23:00 59.2 °F /  15.1 °C 56.5 °F /  13.6 °C 30.34in /  1027.3hPa Calm   3.0mph /  4.8km/h 91% 0.06in /  1.52mm 0.0 W/m2
23:22 59.0 °F /  15 °C 55.4 °F /  13 °C 30.32in /  1026.6hPa Calm   1.0mph /  1.6km/h 88% 0.01in /  0.25mm 0.0 W/m2
23:27 59.2 °F /  15.1 °C 56.3 °F /  13.5 °C 30.31in /  1026.3hPa NNE 2.0mph /  3.2km/h 4.0mph /  6.4km/h 90% 0.00in /  0mm 0.0 W/m2
23:32 59.4 °F /  15.2 °C 56.5 °F /  13.6 °C 30.30in /  1026hPa ESE 0.9mph /  1.4km/h 6.0mph /  9.7km/h 90% 0.00in /  0mm 0.0 W/m2
23:37 59.4 °F /  15.2 °C 56.5 °F /  13.6 °C 30.29in /  1025.6hPa East 0.9mph /  1.4km/h 7.0mph /  11.3km/h 90% 0.00in /  0mm 0.0 W/m2
23:42 59.4 °F /  15.2 °C 56.5 °F /  13.6 °C 30.30in /  1026hPa Calm   1.0mph /  1.6km/h 90% 0.00in /  0mm 0.0 W/m2
23:52 59.4 °F /  15.2 °C 56.5 °F /  13.6 °C 30.30in /  1026hPa Calm   3.0mph /  4.8km/h 90% 0.00in /  0mm 0.0 W/m2
23:57 59.4 °F /  15.2 °C 56.1 °F /  13.4 °C 30.30in /  1026hPa Calm     89% 0.00in /  0mm 0.0 W/m2
Olympia, Windhoek, Namibia
Compliments of Weather Underground - 3.25 mb